LA HONDA (LAH)

Elevation: 425' · SAN GREGORIO CR basin · Operator: CAL FIRE

Query executed Thursday at 1:07:49   clock

Provisional data, subject to change.
Select a sensor type for a plot of data.

Earlier

Date   /   Time   RAIN     TEMP     REL HUM     FUEL MS     FUEL TP     WIND SP     WIND DR     PEAK WS     PEAK WD     SOLAR R     BAT VOL    
(PDT)INCHES   DEG F   %   %   DEG F   MPH   DEG   MPH   DEG   W/M^2   VOLTS  
04/23/2014 01:00 14.50 41 91 19 37 3 67 5 69 0.00 12.9
04/23/2014 02:00 14.50 39 93 20 36 4 71 6 70 0.00 12.8
04/23/2014 03:00 14.50 40 91 21 37 2 60 6 54 0.00 12.8
04/23/2014 04:00 14.50 38 95 22 36 5 80 6 80 0.00 12.7
04/23/2014 05:00 14.50 37 96 23 35 3 85 7 103 0.00 12.7
04/23/2014 06:00 14.50 37 96 24 35 5 86 6 86 0.00 12.7
04/23/2014 07:00 14.50 37 96 24 35 3 82 5 91 17.00 12.7
04/23/2014 08:00 14.50 47 89 25 45 0 137 4 74 166.00 14.5
04/23/2014 09:00 14.50 53 71 23 54 3 274 6 307 351.00 14.2
04/23/2014 10:00 14.50 57 59 21 60 3 233 7 222 489.00 14.1
04/23/2014 11:00 14.50 59 56 16 64 5 253 12 238 611.00 14.1
04/23/2014 12:00 14.50 61 51 13 73 6 247 12 289 792.00 13.9
04/23/2014 13:00 14.50 62 50 11 72 6 259 14 228 865.00 13.9
04/23/2014 14:00 14.50 62 52 11 79 6 254 14 256 875.00 13.8
04/23/2014 15:00 14.50 63 49 9 75 7 252 14 234 822.00 13.8
04/23/2014 16:00 14.50 63 50 8 80 4 261 16 228 716.00 13.7
04/23/2014 17:00 14.50 61 55 9 75 5 256 11 237 563.00 13.7
04/23/2014 18:00 14.50 59 56 8 65 5 257 10 219 376.00 14.0
04/23/2014 19:00 14.50 53 70 10 51 3 269 10 301 69.00 13.6
04/23/2014 20:00 14.50 50 82 11 46 2 151 5 264 10.00 13.4
04/23/2014 21:00 14.50 48 87 12 45 3 84 6 218 0.00 13.2
04/23/2014 22:00 14.50 46 90 15 43 3 111 5 59 0.00 13.1
04/23/2014 23:00 14.50 45 91 17 42 4 77 5 80 0.00 13.0
04/24/2014 00:00 14.50 44 94 19 41 4 87 5 89 0.00 12.9
04/24/2014 01:00 14.50 44 94 20 41 2 25 5 94 0.00 12.8

Later | Latest

Warning! This data is preliminary and subject to revision.

Download Data Now Download Data Now | Show LAH Map | 24 Hours LAH Data | Plot all LAH Sensors | Daily LAH Data | LAH Info